Time;durP1;ratioP1;P1;durP2;ratioP2;P2;SDS_P1;SDS_P2;PMS_P1;PMS_P2;Temp;Humidity;BMP_temperature;BMP_pressure;BME280_temperature;BME280_humidity;BME280_pressure;Samples;Min_cycle;Max_cycle;Signal;HPM_P1;HPM_P2
2022/12/10 00:00:00;;;;;;;111.10;42.10;;;;;;;1.46;93.51;99286.73;103328;1283;22494;-59
2022/12/10 00:02:31;;;;;;;112.50;45.90;;;;;;;1.47;93.53;99290.23;103678;1284;25285;-59
2022/12/10 00:05:03;;;;;;;116.00;45.20;;;;;;;1.48;93.56;99285.34;103434;1306;24293;-59
2022/12/10 00:07:34;;;;;;;117.30;44.40;;;;;;;1.50;93.52;99281.98;103735;1281;25380;-61
2022/12/10 00:10:07;;;;;;;118.60;45.00;;;;;;;1.52;93.49;99283.10;103470;1306;22786;-59
2022/12/10 00:12:38;;;;;;;106.40;41.70;;;;;;;1.54;93.58;99284.81;103657;1285;24274;-60
2022/12/10 00:15:11;;;;;;;120.30;44.40;;;;;;;1.53;93.49;99281.79;103389;1306;23981;-60
2022/12/10 00:17:42;;;;;;;117.60;44.00;;;;;;;1.50;93.43;99285.12;103618;1306;22495;-60
2022/12/10 00:20:14;;;;;;;117.80;44.80;;;;;;;1.50;93.61;99279.95;103375;1306;22468;-59
2022/12/10 00:22:45;;;;;;;104.00;38.60;;;;;;;1.49;93.64;99278.23;103732;1297;22497;-59
2022/12/10 00:25:17;;;;;;;113.00;42.90;;;;;;;1.46;93.53;99278.09;103507;1290;22473;-60
2022/12/10 00:27:49;;;;;;;100.50;36.60;;;;;;;1.46;93.69;99274.64;103655;1283;22499;-60
2022/12/10 00:30:20;;;;;;;118.70;44.50;;;;;;;1.47;93.70;99273.33;103592;1306;24272;-59
2022/12/10 00:32:54;;;;;;;102.90;36.90;;;;;;;1.46;93.73;99272.75;103472;1279;22561;-59
2022/12/10 00:35:26;;;;;;;113.20;42.80;;;;;;;1.43;93.68;99273.55;103407;1277;25279;-59
2022/12/10 00:37:57;;;;;;;114.70;42.40;;;;;;;1.45;93.83;99277.90;103728;1284;22486;-61
2022/12/10 00:40:29;;;;;;;118.90;44.10;;;;;;;1.47;93.89;99277.81;103531;1285;22632;-60
2022/12/10 00:43:01;;;;;;;107.00;35.50;;;;;;;1.49;93.86;99280.60;103684;1280;22481;-60
2022/12/10 00:45:32;;;;;;;110.20;37.30;;;;;;;1.49;93.90;99282.79;103422;1285;24235;-60
2022/12/10 00:48:04;;;;;;;122.30;41.60;;;;;;;1.49;93.81;99279.01;103458;1278;25373;-61
2022/12/10 00:50:35;;;;;;;98.30;33.80;;;;;;;1.49;93.88;99272.71;102555;1306;1266951;-61
2022/12/10 00:53:07;;;;;;;98.80;35.30;;;;;;;1.49;93.88;99267.56;103361;1291;25180;-59
2022/12/10 00:55:40;;;;;;;121.10;40.80;;;;;;;1.46;93.83;99264.10;103377;1281;25162;-59
2022/12/10 00:58:11;;;;;;;114.40;42.50;;;;;;;1.46;93.95;99267.73;103402;1284;22484;-62
2022/12/10 01:00:43;;;;;;;104.20;37.90;;;;;;;1.43;94.11;99271.52;103350;1276;25383;-61
2022/12/10 01:03:15;;;;;;;119.20;39.80;;;;;;;1.41;94.10;99270.63;103415;1283;22526;-61
2022/12/10 01:05:47;;;;;;;119.00;40.90;;;;;;;1.41;94.06;99264.73;103565;1306;22484;-61
2022/12/10 01:08:19;;;;;;;108.10;38.30;;;;;;;1.39;94.02;99264.80;103377;1280;24281;-58
2022/12/10 01:10:55;;;;;;;112.80;38.10;;;;;;;1.36;94.10;99270.56;103505;1285;22478;-60
2022/12/10 01:13:26;;;;;;;108.10;40.30;;;;;;;1.36;94.15;99271.20;103486;1285;22690;-59
2022/12/10 01:15:57;;;;;;;113.20;38.00;;;;;;;1.36;94.16;99274.39;103377;1290;23882;-61
2022/12/10 01:18:29;;;;;;;107.90;40.60;;;;;;;1.36;94.16;99279.51;103539;1306;22475;-60
2022/12/10 01:21:07;;;;;;;123.30;43.30;;;;;;;1.36;94.10;99282.81;103420;1306;22628;-59
2022/12/10 01:23:40;;;;;;;98.50;37.80;;;;;;;1.38;94.18;99288.65;103442;1291;25856;-61
2022/12/10 01:26:14;;;;;;;100.00;34.90;;;;;;;1.39;94.22;99286.72;103352;1306;24824;-61
2022/12/10 01:28:47;;;;;;;120.90;42.00;;;;;;;1.43;94.28;99292.26;103348;1278;25399;-61
2022/12/10 01:31:22;;;;;;;98.00;35.10;;;;;;;1.47;94.29;99289.63;103358;1283;23783;-60
2022/12/10 01:33:54;;;;;;;108.40;38.80;;;;;;;1.47;94.15;99292.67;103225;1277;22483;-60
2022/12/10 01:36:28;;;;;;;101.30;37.90;;;;;;;1.45;94.10;99292.73;103223;1284;22510;-59
2022/12/10 01:39:00;;;;;;;123.60;41.20;;;;;;;1.42;94.11;99294.73;103524;1306;22517;-60
2022/12/10 01:41:33;;;;;;;105.30;37.80;;;;;;;1.42;94.24;99287.73;103695;1277;22473;-61
2022/12/10 01:44:27;;;;;;;109.70;36.90;;;;;;;1.43;94.25;99287.94;103485;1306;22545;-60
2022/12/10 01:47:01;;;;;;;115.70;38.20;;;;;;;1.42;94.29;99288.73;103547;1277;22513;-60
2022/12/10 01:49:37;;;;;;;106.40;36.40;;;;;;;1.42;94.30;99288.21;103523;1285;25618;-59
2022/12/10 01:52:12;;;;;;;101.80;34.80;;;;;;;1.40;94.27;99288.10;103434;1283;22509;-61
2022/12/10 01:54:46;;;;;;;103.80;36.20;;;;;;;1.40;94.39;99288.56;103445;1306;22428;-60
2022/12/10 01:57:20;;;;;;;114.70;37.70;;;;;;;1.41;94.31;99287.77;103462;1303;22500;-60
2022/12/10 01:59:57;;;;;;;99.90;34.20;;;;;;;1.42;94.38;99285.61;103499;1305;22510;-60
2022/12/10 02:02:40;;;;;;;110.10;37.50;;;;;;;1.42;94.40;99288.21;103917;1284;22961;-61
2022/12/10 02:05:24;;;;;;;107.00;36.80;;;;;;;1.43;94.49;99286.60;103431;1281;25299;-59
2022/12/10 02:08:07;;;;;;;107.20;38.70;;;;;;;1.43;94.32;99284.62;103467;1289;25913;-60
2022/12/10 02:10:51;;;;;;;90.30;29.50;;;;;;;1.44;94.42;99284.69;103396;1307;22483;-60
2022/12/10 02:13:29;;;;;;;102.40;34.80;;;;;;;1.43;94.39;99284.71;103382;1299;22539;-60
2022/12/10 02:16:05;;;;;;;113.90;40.40;;;;;;;1.40;94.39;99288.74;103515;1307;22402;-61
2022/12/10 02:18:40;;;;;;;103.00;37.30;;;;;;;1.39;94.35;99288.00;103491;1306;25432;-61
2022/12/10 02:21:17;;;;;;;115.00;39.50;;;;;;;1.40;94.51;99290.30;103417;1306;26635;-60
2022/12/10 02:23:53;;;;;;;102.10;35.90;;;;;;;1.43;94.56;99291.00;103458;1306;23874;-63
2022/12/10 02:26:33;;;;;;;102.60;36.00;;;;;;;1.42;94.37;99287.89;103464;1284;24369;-62
2022/12/10 02:29:17;;;;;;;118.80;38.20;;;;;;;1.41;94.50;99285.70;103335;1284;24343;-62
2022/12/10 02:31:53;;;;;;;109.70;39.60;;;;;;;1.44;94.52;99284.91;103306;1285;22503;-60
2022/12/10 02:34:27;;;;;;;118.20;37.30;;;;;;;1.47;94.50;99290.23;103431;1277;22526;-61
2022/12/10 02:37:02;;;;;;;108.40;38.80;;;;;;;1.47;94.46;99288.34;103418;1306;22474;-60
2022/12/10 02:39:41;;;;;;;100.20;38.70;;;;;;;1.49;94.43;99293.90;103456;1305;22497;-61
2022/12/10 02:42:18;;;;;;;107.80;39.90;;;;;;;1.49;94.37;99300.08;103546;1290;22650;-61
2022/12/10 02:44:50;;;;;;;105.20;35.20;;;;;;;1.48;94.35;99303.25;103552;1306;22485;-61
2022/12/10 02:47:22;;;;;;;106.70;36.90;;;;;;;1.48;94.27;99303.48;103486;1304;22473;-61
2022/12/10 02:49:57;;;;;;;110.20;38.60;;;;;;;1.48;94.30;99304.59;103497;1274;22495;-60
2022/12/10 02:52:28;;;;;;;95.40;33.90;;;;;;;1.49;94.37;99304.26;103437;1306;22475;-61
2022/12/10 02:55:00;;;;;;;101.90;36.50;;;;;;;1.47;94.25;99303.20;103520;1281;25395;-60
2022/12/10 02:57:37;;;;;;;107.70;38.30;;;;;;;1.46;94.34;99303.33;103410;1306;25402;-61
2022/12/10 03:00:16;;;;;;;97.40;35.60;;;;;;;1.47;94.33;99305.96;103515;1298;22605;-61
2022/12/10 03:03:07;;;;;;;91.30;31.60;;;;;;;1.45;94.41;99306.65;103599;1305;22480;-61
2022/12/10 03:05:46;;;;;;;106.00;36.10;;;;;;;1.42;94.51;99304.63;103434;1281;22487;-61
2022/12/10 03:08:22;;;;;;;103.30;35.70;;;;;;;1.44;94.56;99303.70;103221;1285;22976;-62
2022/12/10 03:11:01;;;;;;;113.10;37.60;;;;;;;1.47;94.64;99305.95;103513;1305;22422;-59
2022/12/10 03:13:40;;;;;;;114.20;37.80;;;;;;;1.48;94.58;99307.34;103492;1280;25396;-60
2022/12/10 03:16:13;;;;;;;120.60;37.00;;;;;;;1.47;94.54;99310.21;103554;1298;23231;-61
2022/12/10 03:18:47;;;;;;;106.00;35.20;;;;;;;1.45;94.48;99314.59;103472;1282;22699;-60
2022/12/10 03:21:19;;;;;;;102.00;30.40;;;;;;;1.42;94.58;99309.48;103420;1282;22776;-61
2022/12/10 03:23:52;;;;;;;96.00;31.50;;;;;;;1.40;94.51;99312.05;103515;1305;25341;-61
2022/12/10 03:26:24;;;;;;;98.90;32.50;;;;;;;1.35;94.47;99314.96;103456;1282;22469;-60
2022/12/10 03:29:02;;;;;;;107.00;35.80;;;;;;;1.32;94.43;99316.27;103461;1275;22499;-61
2022/12/10 03:31:36;;;;;;;116.90;35.50;;;;;;;1.31;94.68;99317.94;103493;1281;22770;-60
2022/12/10 03:34:10;;;;;;;90.60;34.40;;;;;;;1.31;94.62;99316.91;103589;1280;25426;-61
2022/12/10 03:36:44;;;;;;;92.10;30.70;;;;;;;1.33;94.72;99317.77;103539;1282;25879;-61
2022/12/10 03:39:17;;;;;;;108.10;35.90;;;;;;;1.34;94.61;99318.79;103462;1299;22475;-61
2022/12/10 03:41:48;;;;;;;105.50;32.50;;;;;;;1.33;94.61;99318.51;103641;1306;22477;-60
2022/12/10 03:44:30;;;;;;;104.80;32.10;;;;;;;1.31;94.58;99314.70;103428;1285;23922;-62
2022/12/10 03:47:05;;;;;;;93.10;31.50;;;;;;;1.32;94.59;99315.63;103505;1306;22474;-61
2022/12/10 03:49:36;;;;;;;90.70;31.40;;;;;;;1.33;94.59;99315.29;103550;1306;23910;-61
2022/12/10 03:52:08;;;;;;;104.50;32.90;;;;;;;1.30;94.61;99313.95;103551;1274;22501;-59
2022/12/10 03:54:40;;;;;;;86.10;31.60;;;;;;;1.33;94.82;99313.40;103430;1291;24448;-60
2022/12/10 03:57:11;;;;;;;96.80;31.00;;;;;;;1.34;94.68;99309.20;103399;1306;24458;-59
2022/12/10 03:59:42;;;;;;;99.30;32.80;;;;;;;1.35;94.63;99312.05;103554;1302;22536;-61
2022/12/10 04:02:14;;;;;;;89.90;33.70;;;;;;;1.34;94.52;99316.52;103427;1298;22874;-60
2022/12/10 04:04:45;;;;;;;97.90;31.40;;;;;;;1.34;94.62;99314.00;103524;1282;22478;-60
2022/12/10 04:07:17;;;;;;;85.50;30.60;;;;;;;1.32;94.43;99317.58;103455;1281;26273;-61
2022/12/10 04:09:48;;;;;;;95.70;32.00;;;;;;;1.29;94.37;99320.81;103548;1306;22584;-61
2022/12/10 04:12:19;;;;;;;95.00;30.00;;;;;;;1.26;94.35;99322.23;103493;1299;22481;-61
2022/12/10 04:17:39;;;;;;;92.90;32.30;;;;;;;1.24;94.41;99330.15;103451;1298;24261;-59
2022/12/10 04:28:35;;;;;;;84.00;30.80;;;;;;;1.23;94.47;99337.34;103417;1278;22609;-61
2022/12/10 04:31:08;;;;;;;85.50;31.60;;;;;;;1.24;94.42;99344.30;103412;1282;22529;-60
2022/12/10 04:33:40;;;;;;;89.90;30.40;;;;;;;1.25;94.49;99343.80;103510;1282;24277;-61
2022/12/10 04:36:11;;;;;;;79.70;27.10;;;;;;;1.24;94.26;99348.45;103524;1306;24334;-61
2022/12/10 04:38:43;;;;;;;84.30;28.60;;;;;;;1.25;94.40;99347.82;103624;1282;22517;-60
2022/12/10 04:41:16;;;;;;;81.00;27.50;;;;;;;1.28;94.49;99345.20;103465;1303;24310;-61
2022/12/10 04:43:47;;;;;;;92.30;30.40;;;;;;;1.27;94.39;99341.83;103414;1278;22486;-60
2022/12/10 04:46:19;;;;;;;84.70;31.60;;;;;;;1.26;94.28;99345.58;103508;1306;24899;-59
2022/12/10 04:48:50;;;;;;;86.00;28.60;;;;;;;1.25;94.25;99347.97;103420;1305;22480;-61
2022/12/10 04:51:22;;;;;;;92.30;31.30;;;;;;;1.23;94.27;99352.48;103484;1285;24260;-60
2022/12/10 04:53:55;;;;;;;80.10;30.30;;;;;;;1.23;94.32;99356.65;103548;1306;22468;-59
2022/12/10 04:56:27;;;;;;;76.40;27.70;;;;;;;1.23;94.19;99363.71;103704;1275;23648;-60
2022/12/10 04:58:59;;;;;;;86.50;30.80;;;;;;;1.22;94.29;99362.80;103442;1306;22739;-61
2022/12/10 05:01:31;;;;;;;90.30;31.80;;;;;;;1.23;94.30;99364.50;103390;1282;22471;-61
2022/12/10 05:04:05;;;;;;;85.80;31.20;;;;;;;1.23;94.23;99362.63;103507;1306;22486;-60
2022/12/10 05:06:37;;;;;;;83.50;29.40;;;;;;;1.24;94.32;99355.76;103448;1278;22597;-61
2022/12/10 05:09:10;;;;;;;79.20;29.50;;;;;;;1.24;94.29;99352.48;103544;1282;22478;-61
2022/12/10 05:11:44;;;;;;;83.10;28.50;;;;;;;1.22;94.20;99352.66;103351;1303;25270;-60
2022/12/10 05:14:16;;;;;;;74.00;27.70;;;;;;;1.21;94.25;99356.40;103197;1282;25387;-61
2022/12/10 05:16:49;;;;;;;76.00;26.70;;;;;;;1.20;94.19;99353.06;103492;1274;22468;-61
2022/12/10 05:19:23;;;;;;;76.70;25.90;;;;;;;1.21;94.29;99353.89;103460;1282;25385;-60
2022/12/10 05:24:43;;;;;;;76.30;26.60;;;;;;;1.16;93.93;99355.14;103451;1274;22531;-60
2022/12/10 05:27:15;;;;;;;80.70;30.30;;;;;;;1.14;93.95;99364.15;103458;1306;25556;-59
2022/12/10 05:29:49;;;;;;;71.00;27.40;;;;;;;1.13;94.11;99366.84;103484;1306;22702;-60
2022/12/10 05:32:20;;;;;;;54.60;25.80;;;;;;;1.15;94.08;99371.20;103450;1303;24378;-59
2022/12/10 05:34:52;;;;;;;75.50;26.20;;;;;;;1.16;94.08;99371.48;103429;1306;26549;-60
2022/12/10 05:37:24;;;;;;;74.90;28.40;;;;;;;1.15;94.06;99369.63;103359;1281;24285;-59
2022/12/10 05:39:56;;;;;;;81.00;29.60;;;;;;;1.15;94.07;99362.01;103433;1306;25238;-61
2022/12/10 05:42:27;;;;;;;77.50;31.20;;;;;;;1.16;94.23;99364.55;103300;1282;22485;-60
2022/12/10 05:44:58;;;;;;;69.20;27.10;;;;;;;1.17;94.13;99369.09;103112;1306;22477;-60
2022/12/10 05:47:33;;;;;;;75.70;28.10;;;;;;;1.18;94.11;99374.70;103389;1282;22515;-60
2022/12/10 05:50:06;;;;;;;72.50;28.90;;;;;;;1.18;94.00;99380.38;103491;1305;22432;-60
2022/12/10 05:52:38;;;;;;;73.30;27.80;;;;;;;1.20;94.04;99379.70;103501;1278;23863;-60
2022/12/10 05:55:11;;;;;;;72.00;25.10;;;;;;;1.22;94.07;99380.56;103583;1306;22511;-58
2022/12/10 05:57:43;;;;;;;71.30;26.20;;;;;;;1.22;94.03;99380.64;103432;1282;22501;-59
2022/12/10 06:00:17;;;;;;;79.50;28.70;;;;;;;1.22;93.95;99382.45;103535;1283;22429;-60
2022/12/10 06:02:49;;;;;;;72.30;27.00;;;;;;;1.23;93.97;99383.37;103565;1303;22479;-59
2022/12/10 06:05:20;;;;;;;70.20;23.60;;;;;;;1.23;94.06;99382.41;103473;1282;22480;-61
2022/12/10 06:07:51;;;;;;;66.80;24.30;;;;;;;1.24;93.93;99383.02;103381;1285;22421;-58
2022/12/10 06:10:22;;;;;;;73.50;26.30;;;;;;;1.21;93.74;99384.29;103772;1278;25276;-59
2022/12/10 06:12:54;;;;;;;68.00;24.50;;;;;;;1.19;93.82;99380.96;103465;1306;22763;-58
2022/12/10 06:15:25;;;;;;;68.50;25.80;;;;;;;1.18;93.87;99385.54;103415;1306;24283;-60
2022/12/10 06:17:58;;;;;;;72.40;28.10;;;;;;;1.19;93.90;99384.59;103538;1306;25383;-59
2022/12/10 06:20:29;;;;;;;82.50;29.90;;;;;;;1.20;93.92;99381.25;103716;1282;22471;-61
2022/12/10 06:23:01;;;;;;;72.50;27.60;;;;;;;1.18;93.79;99376.07;103426;1274;25203;-58
2022/12/10 06:25:34;;;;;;;76.40;27.60;;;;;;;1.14;93.70;99378.58;103442;1287;22471;-60
2022/12/10 06:28:07;;;;;;;77.40;29.30;;;;;;;1.13;93.82;99378.95;103368;1274;25287;-60
2022/12/10 06:30:38;;;;;;;75.90;29.00;;;;;;;1.12;93.86;99379.86;103474;1282;22534;-59
2022/12/10 06:33:09;;;;;;;76.90;27.80;;;;;;;1.10;93.87;99380.13;103509;1274;22487;-59
2022/12/10 06:35:41;;;;;;;76.60;28.70;;;;;;;1.06;93.78;99380.08;103527;1282;22930;-59
2022/12/10 06:38:12;;;;;;;72.80;26.60;;;;;;;1.04;93.72;99383.06;103507;1283;22472;-61
2022/12/10 06:40:45;;;;;;;78.20;27.20;;;;;;;1.03;93.76;99384.98;103409;1298;22479;-61
2022/12/10 06:43:16;;;;;;;81.30;29.80;;;;;;;1.03;93.95;99384.73;103375;1282;22485;-61
2022/12/10 06:45:48;;;;;;;73.70;26.80;;;;;;;1.06;94.12;99380.40;103443;1282;22471;-60
2022/12/10 06:48:19;;;;;;;83.80;32.60;;;;;;;1.04;93.83;99384.05;103278;1306;22602;-60
2022/12/10 06:50:51;;;;;;;81.40;31.00;;;;;;;1.04;93.94;99380.69;103369;1303;23475;-61
2022/12/10 06:53:22;;;;;;;77.60;30.70;;;;;;;1.04;93.85;99381.08;103389;1291;23097;-60
2022/12/10 06:55:54;;;;;;;68.30;27.10;;;;;;;1.05;94.00;99377.69;103289;1282;22661;-67
2022/12/10 06:58:25;;;;;;;69.30;26.70;;;;;;;1.04;93.79;99383.77;103405;1280;23099;-61
2022/12/10 07:01:03;;;;;;;75.90;31.60;;;;;;;1.01;93.78;99387.07;103376;1280;24287;-61
2022/12/10 07:03:35;;;;;;;83.50;29.30;;;;;;;1.00;93.74;99395.55;103407;1282;22540;-61
2022/12/10 07:06:08;;;;;;;74.00;29.90;;;;;;;1.00;93.82;99399.18;103389;1306;22484;-61
2022/12/10 07:08:40;;;;;;;73.60;28.90;;;;;;;1.01;93.89;99404.80;103573;1306;22698;-60
2022/12/10 07:11:13;;;;;;;79.70;32.20;;;;;;;1.02;93.89;99399.35;103381;1282;25887;-61
2022/12/10 07:13:45;;;;;;;77.00;31.30;;;;;;;1.03;93.81;99403.17;103547;1282;25261;-61
2022/12/10 07:16:17;;;;;;;82.30;31.10;;;;;;;1.00;93.76;99407.96;103500;1298;22462;-59
2022/12/10 07:18:50;;;;;;;80.80;29.20;;;;;;;1.02;93.90;99407.67;103291;1274;22487;-61
2022/12/10 07:21:22;;;;;;;82.00;31.80;;;;;;;1.00;93.74;99410.25;103537;1281;24265;-60
2022/12/10 07:23:57;;;;;;;74.10;27.70;;;;;;;1.00;93.85;99414.94;103456;1306;22705;-61
2022/12/10 07:26:32;;;;;;;82.00;30.40;;;;;;;0.97;93.60;99416.16;104565;1293;22488;-61
2022/12/10 07:29:06;;;;;;;66.40;27.10;;;;;;;0.94;93.61;99412.09;103296;1282;22472;-62
2022/12/10 07:31:38;;;;;;;74.40;30.70;;;;;;;0.92;93.59;99405.91;103350;1306;24370;-61
2022/12/10 07:34:11;;;;;;;83.70;30.90;;;;;;;0.91;93.80;99409.55;103242;1285;22476;-61
2022/12/10 07:36:43;;;;;;;84.70;32.30;;;;;;;0.93;93.94;99405.83;103492;1277;22429;-62
2022/12/10 07:39:17;;;;;;;71.90;27.20;;;;;;;0.94;93.89;99408.60;103508;1290;23206;-61
2022/12/10 07:41:51;;;;;;;79.30;30.00;;;;;;;0.94;93.82;99406.64;103236;1282;24240;-61
2022/12/10 07:44:24;;;;;;;67.90;25.80;;;;;;;0.94;93.85;99404.21;103546;1282;22865;-61
2022/12/10 07:46:56;;;;;;;74.90;27.90;;;;;;;0.93;93.89;99402.05;103307;1306;24264;-61
2022/12/10 07:49:29;;;;;;;74.20;31.00;;;;;;;0.92;93.92;99407.80;103510;1279;22406;-60
2022/12/10 07:52:01;;;;;;;71.90;25.80;;;;;;;0.92;93.98;99409.77;103270;1306;24187;-61
2022/12/10 07:54:32;;;;;;;77.00;28.20;;;;;;;0.90;93.78;99414.93;103286;1299;22491;-60
2022/12/10 07:57:04;;;;;;;77.30;29.80;;;;;;;0.87;93.84;99419.72;103162;1274;24129;-60
2022/12/10 07:59:35;;;;;;;77.20;31.60;;;;;;;0.85;93.87;99423.84;103349;1306;22504;-62
2022/12/10 08:02:10;;;;;;;75.70;28.80;;;;;;;0.86;93.98;99429.88;103195;1304;22714;-60
2022/12/10 08:04:42;;;;;;;83.80;29.90;;;;;;;0.84;93.95;99433.61;103256;1282;25482;-60
2022/12/10 08:07:13;;;;;;;72.60;27.00;;;;;;;0.86;94.10;99438.58;103206;1299;24327;-60
2022/12/10 08:09:45;;;;;;;76.20;27.20;;;;;;;0.88;94.01;99441.67;103323;1285;26666;-61
2022/12/10 08:12:16;;;;;;;75.60;27.70;;;;;;;0.89;94.06;99445.58;103292;1277;24189;-59
2022/12/10 08:14:48;;;;;;;81.00;31.80;;;;;;;0.90;94.00;99443.11;103155;1282;24262;-59
2022/12/10 08:17:20;;;;;;;73.20;28.00;;;;;;;0.89;93.87;99440.98;103282;1275;22476;-61
2022/12/10 08:19:52;;;;;;;69.20;24.90;;;;;;;0.90;93.99;99444.45;103240;1282;25467;-60
2022/12/10 08:22:23;;;;;;;78.20;30.30;;;;;;;0.90;93.94;99441.55;103331;1282;22473;-59
2022/12/10 08:24:55;;;;;;;74.00;29.10;;;;;;;0.91;93.95;99443.40;103423;1280;25419;-60
2022/12/10 08:27:27;;;;;;;74.20;28.70;;;;;;;0.89;93.94;99439.44;103435;1282;25631;-61
2022/12/10 08:29:58;;;;;;;72.40;29.00;;;;;;;0.88;93.80;99443.27;103348;1306;22488;-57
2022/12/10 08:32:30;;;;;;;75.40;25.20;;;;;;;0.87;93.91;99444.69;103649;1306;22483;-57
2022/12/10 08:35:01;;;;;;;71.10;26.00;;;;;;;0.89;93.98;99449.42;103418;1282;24283;-57
2022/12/10 08:37:32;;;;;;;81.80;30.10;;;;;;;0.89;93.98;99451.92;103378;1282;22467;-56
2022/12/10 08:40:05;;;;;;;76.60;28.10;;;;;;;0.91;94.00;99451.09;103432;1306;24446;-61
2022/12/10 08:42:36;;;;;;;75.90;29.90;;;;;;;0.91;93.85;99454.30;103315;1282;23728;-60
2022/12/10 08:45:10;;;;;;;79.50;30.80;;;;;;;0.88;93.82;99450.84;103317;1306;22598;-59
2022/12/10 08:47:42;;;;;;;70.20;28.30;;;;;;;0.92;94.08;99448.80;103374;1306;22479;-59
2022/12/10 08:50:14;;;;;;;81.60;30.30;;;;;;;0.94;94.08;99452.33;103286;1298;22480;-59
2022/12/10 08:52:45;;;;;;;75.20;31.00;;;;;;;0.97;94.02;99448.42;103290;1278;22489;-61
2022/12/10 08:55:17;;;;;;;79.50;30.70;;;;;;;0.97;94.00;99451.39;103283;1287;23177;-59
2022/12/10 08:57:50;;;;;;;71.60;27.20;;;;;;;0.98;94.02;99453.48;103268;1282;22485;-60
2022/12/10 09:00:22;;;;;;;76.70;29.00;;;;;;;0.96;93.83;99453.15;103094;1282;22472;-58
2022/12/10 09:02:53;;;;;;;73.30;29.60;;;;;;;0.95;93.82;99452.31;103116;1306;22483;-61
2022/12/10 09:05:24;;;;;;;77.50;31.10;;;;;;;0.95;94.01;99450.66;102961;1282;24308;-59
2022/12/10 09:07:56;;;;;;;69.30;28.00;;;;;;;0.98;94.08;99451.29;103099;1282;25204;-60
2022/12/10 09:10:27;;;;;;;70.20;26.90;;;;;;;0.98;93.89;99450.75;103042;1282;22480;-61
2022/12/10 09:12:59;;;;;;;68.00;27.60;;;;;;;0.97;93.94;99447.56;103001;1282;22508;-61
2022/12/10 09:15:32;;;;;;;70.00;27.70;;;;;;;0.97;93.85;99446.38;103801;1306;22607;-61
2022/12/10 09:18:03;;;;;;;71.50;28.90;;;;;;;0.94;93.91;99441.27;103268;1291;22729;-58
2022/12/10 09:20:35;;;;;;;69.70;28.00;;;;;;;0.94;94.04;99440.72;103456;1282;22484;-57
2022/12/10 09:23:06;;;;;;;80.80;31.80;;;;;;;0.95;94.16;99445.02;103374;1282;22479;-57
2022/12/10 09:25:39;;;;;;;67.60;26.20;;;;;;;0.97;94.17;99444.56;103295;1292;22479;-58
2022/12/10 09:28:10;;;;;;;71.30;29.40;;;;;;;0.98;94.14;99440.48;103296;1282;25393;-60
2022/12/10 09:30:42;;;;;;;77.80;30.70;;;;;;;1.02;94.29;99444.20;103255;1282;22449;-57
2022/12/10 09:33:13;;;;;;;71.00;28.50;;;;;;;1.05;94.18;99441.37;103317;1282;24375;-57
2022/12/10 09:35:45;;;;;;;54.00;20.40;;;;;;;1.07;94.31;99442.17;103427;1306;23977;-58
2022/12/10 09:38:16;;;;;;;67.30;27.50;;;;;;;1.10;94.13;99446.02;103314;1282;25421;-58
2022/12/10 09:40:56;;;;;;;72.90;29.00;;;;;;;1.11;94.09;99447.57;103600;1274;24330;-60
2022/12/10 09:43:38;;;;;;;67.60;28.40;;;;;;;1.11;94.02;99443.08;103363;1282;22492;-59
2022/12/10 09:46:18;;;;;;;62.40;25.00;;;;;;;1.14;94.05;99445.98;103376;1297;22494;-61
2022/12/10 09:49:03;;;;;;;64.90;25.70;;;;;;;1.15;94.02;99443.23;103406;1282;22476;-59
2022/12/10 09:51:41;;;;;;;64.20;26.20;;;;;;;1.15;93.98;99441.71;103409;1281;22542;-61
2022/12/10 09:54:22;;;;;;;65.90;28.00;;;;;;;1.15;93.95;99435.35;103458;1282;24035;-61
2022/12/10 09:56:55;;;;;;;67.00;29.10;;;;;;;1.14;93.82;99428.55;102962;1282;24064;-62
2022/12/10 09:59:33;;;;;;;70.00;26.60;;;;;;;1.15;93.92;99431.19;105221;1282;24462;-61
2022/12/10 10:02:20;;;;;;;64.80;27.30;;;;;;;1.18;93.94;99435.20;103246;1282;22542;-60
2022/12/10 10:04:53;;;;;;;67.90;26.10;;;;;;;1.20;93.97;99432.16;103493;1281;25416;-61
2022/12/10 10:07:27;;;;;;;68.60;28.50;;;;;;;1.24;94.03;99426.13;103306;1304;22466;-56
2022/12/10 10:10:02;;;;;;;72.60;27.80;;;;;;;1.28;93.96;99421.02;103353;1282;22479;-56
2022/12/10 10:12:35;;;;;;;74.70;27.80;;;;;;;1.31;93.97;99416.61;103976;1285;22285;-57
2022/12/10 10:15:18;;;;;;;71.00;28.10;;;;;;;1.35;93.88;99414.20;104949;1277;23866;-58
2022/12/10 10:17:50;;;;;;;75.70;28.80;;;;;;;1.36;93.69;99406.30;103416;1291;23268;-58
2022/12/10 10:20:22;;;;;;;67.80;28.60;;;;;;;1.39;93.65;99407.89;103926;1275;22550;-58
2022/12/10 10:22:57;;;;;;;75.20;29.50;;;;;;;1.41;93.71;99406.58;103186;1282;22483;-57
2022/12/10 10:25:29;;;;;;;60.70;24.70;;;;;;;1.42;93.55;99401.13;103382;1306;23097;-56
2022/12/10 10:28:03;;;;;;;70.50;28.00;;;;;;;1.41;93.56;99396.19;103636;1282;23614;-56
2022/12/10 10:30:34;;;;;;;62.50;25.60;;;;;;;1.43;93.65;99393.15;103277;1282;22473;-58
2022/12/10 10:33:11;;;;;;;63.50;25.40;;;;;;;1.44;93.62;99392.87;103488;1305;22530;-60
2022/12/10 10:35:49;;;;;;;68.10;26.00;;;;;;;1.43;93.37;99395.12;103425;1299;22483;-56
2022/12/10 10:38:24;;;;;;;67.60;28.10;;;;;;;1.42;93.42;99397.98;103221;1281;24270;-58
2022/12/10 10:40:57;;;;;;;72.30;28.50;;;;;;;1.44;93.64;99399.87;103280;1282;22804;-58
2022/12/10 10:43:34;;;;;;;67.40;27.50;;;;;;;1.49;93.70;99401.31;103215;1275;22475;-57
2022/12/10 10:46:12;;;;;;;78.80;30.90;;;;;;;1.52;93.55;99403.80;103189;1291;23822;-57
2022/12/10 10:48:43;;;;;;;77.30;29.20;;;;;;;1.53;93.41;99398.25;103250;1285;22485;-56
2022/12/10 10:51:23;;;;;;;73.70;29.40;;;;;;;1.53;93.23;99398.51;103233;1283;23810;-57
2022/12/10 10:53:55;;;;;;;66.50;26.30;;;;;;;1.52;93.16;99394.21;103469;1278;25385;-57
2022/12/10 10:56:30;;;;;;;65.20;25.80;;;;;;;1.50;92.91;99387.61;103577;1278;22521;-55
2022/12/10 10:59:08;;;;;;;66.30;25.80;;;;;;;1.47;92.79;99387.14;103191;1306;22591;-55
2022/12/10 11:01:50;;;;;;;75.30;29.30;;;;;;;1.45;93.00;99382.77;103265;1281;24291;-58
2022/12/10 11:04:29;;;;;;;68.70;28.90;;;;;;;1.47;92.99;99384.52;103271;1280;24350;-56
2022/12/10 11:07:04;;;;;;;82.00;33.60;;;;;;;1.47;92.95;99388.30;102651;1282;22721;-59
2022/12/10 11:09:37;;;;;;;79.80;32.90;;;;;;;1.49;92.97;99388.27;103489;1282;23662;-54
2022/12/10 11:12:24;;;;;;;72.20;29.30;;;;;;;1.50;93.14;99395.77;103198;1278;23037;-59
2022/12/10 11:14:56;;;;;;;64.40;25.40;;;;;;;1.51;92.65;99404.69;103189;1298;22474;-56
2022/12/10 11:17:29;;;;;;;72.20;28.70;;;;;;;1.48;92.63;99403.52;103397;1277;22469;-57
2022/12/10 11:20:04;;;;;;;61.80;24.70;;;;;;;1.50;92.62;99410.46;103434;1282;22472;-58
2022/12/10 11:22:37;;;;;;;72.70;29.40;;;;;;;1.50;92.59;99410.53;103239;1282;22473;-58
2022/12/10 11:25:14;;;;;;;66.10;26.60;;;;;;;1.52;92.78;99408.83;103258;1283;25281;-57
2022/12/10 11:27:57;;;;;;;75.40;32.30;;;;;;;1.54;92.85;99412.46;103175;1282;25271;-56
2022/12/10 11:30:32;;;;;;;80.70;34.10;;;;;;;1.57;92.82;99416.14;102819;1291;22469;-57
2022/12/10 11:33:20;;;;;;;80.90;32.00;;;;;;;1.60;92.62;99420.94;103214;1281;23092;-57
2022/12/10 11:36:06;;;;;;;80.60;30.30;;;;;;;1.60;92.60;99421.33;103076;1305;22473;-57
2022/12/10 11:38:50;;;;;;;70.50;26.30;;;;;;;1.62;92.70;99423.55;103446;1282;24114;-59
2022/12/10 11:41:33;;;;;;;65.40;24.00;;;;;;;1.62;92.38;99419.70;102997;1282;24046;-59
2022/12/10 11:44:27;;;;;;;83.40;33.20;;;;;;;1.59;92.33;99420.24;103171;1291;22482;-60
2022/12/10 11:47:20;;;;;;;82.30;34.20;;;;;;;1.62;92.66;99412.55;102985;1282;25411;-58
2022/12/10 11:50:09;;;;;;;90.80;36.60;;;;;;;1.63;92.49;99419.67;103432;1281;25397;-57
2022/12/10 11:52:54;;;;;;;80.90;33.80;;;;;;;1.64;92.54;99422.30;103088;1306;22529;-58
2022/12/10 11:55:37;;;;;;;75.10;29.40;;;;;;;1.66;92.46;99419.66;103161;1285;23938;-59
2022/12/10 11:58:28;;;;;;;60.50;24.40;;;;;;;1.63;92.07;99417.22;103000;1281;22846;-57